createdAt,value
2022-10-31T16:15:21.431Z,99.99
2022-10-31T16:17:35.860Z,99.99
2022-10-31T17:17:29.060Z,99.99
2022-10-31T17:18:08.091Z,99.99
2022-10-31T17:19:08.071Z,99.99
2022-10-31T17:20:08.022Z,99.99
2022-10-31T17:21:08.073Z,99.99
2022-10-31T17:22:07.912Z,99.99
2022-10-31T17:23:08.042Z,99.99
2022-10-31T17:24:07.950Z,99.99
2022-10-31T17:25:08.061Z,99.99
2022-10-31T17:26:08.092Z,99.99
2022-10-31T17:27:10.610Z,99.99
2022-10-31T17:28:08.100Z,99.99
2022-10-31T17:29:07.781Z,99.99
2022-10-31T17:30:08.161Z,99.99
2022-10-31T17:31:07.742Z,99.99
2022-10-31T17:32:07.901Z,99.99
2022-10-31T17:33:07.851Z,99.99
2022-10-31T17:34:08.102Z,99.99
2022-10-31T17:35:08.020Z,99.99
2022-10-31T17:36:07.051Z,99.99
2022-10-31T17:37:07.781Z,99.99
2022-10-31T17:38:07.860Z,99.99
2022-10-31T17:39:07.801Z,99.99
2022-10-31T17:40:07.919Z,99.99
2022-10-31T17:41:10.956Z,99.99
2022-10-31T17:42:08.631Z,99.99
2022-10-31T17:43:07.761Z,99.99
2022-10-31T17:44:08.981Z,99.99
2022-10-31T17:45:08.913Z,99.99
2022-10-31T17:46:08.711Z,99.99
2022-10-31T17:47:08.791Z,99.99
2022-10-31T17:48:08.631Z,99.99
2022-10-31T17:49:08.760Z,99.99
2022-10-31T17:50:08.751Z,99.99
2022-10-31T17:51:07.761Z,99.99
2022-10-31T17:52:07.603Z,99.99
2022-10-31T17:53:07.692Z,99.99
2022-10-31T17:54:08.181Z,99.99
2022-10-31T17:55:07.731Z,99.99
2022-10-31T17:56:07.941Z,99.99
2022-10-31T17:57:07.750Z,99.99
2022-10-31T17:58:07.611Z,99.99
2022-10-31T17:59:08.167Z,99.99
2022-10-31T18:00:07.800Z,99.99
2022-10-31T18:01:07.993Z,99.99
2022-10-31T18:02:07.997Z,99.99
2022-10-31T18:03:07.450Z,99.99
2022-10-31T18:04:08.290Z,99.99
2022-10-31T18:05:07.930Z,99.99
2022-10-31T18:06:07.621Z,99.99
2022-10-31T18:07:07.500Z,99.99
2022-10-31T18:08:07.672Z,99.99
2022-10-31T18:09:07.533Z,99.99
2022-10-31T18:10:07.585Z,99.86
2022-10-31T18:11:07.641Z,99.99
2022-10-31T18:12:07.374Z,99.99
2022-10-31T18:13:07.440Z,99.99
2022-10-31T18:14:07.401Z,99.99
2022-10-31T18:15:07.451Z,99.86
2022-10-31T18:16:07.512Z,99.76
2022-10-31T18:17:07.411Z,99.76
2022-10-31T18:18:07.311Z,99.45
2022-10-31T18:19:07.421Z,99.45
2022-10-31T18:20:07.341Z,99.99
2022-10-31T18:21:07.591Z,99.99
2022-10-31T18:22:07.402Z,99.99
2022-10-31T18:23:07.431Z,99.99
2022-10-31T18:24:07.280Z,99.99
2022-10-31T18:25:07.471Z,99.99
2022-10-31T18:26:07.451Z,99.99
2022-10-31T18:27:07.782Z,99.99
2022-10-31T18:28:07.379Z,99.99
2022-10-31T18:29:07.131Z,99.99
2022-10-31T18:30:07.410Z,99.45
2022-10-31T18:31:07.152Z,99.66
2022-10-31T18:32:09.464Z,99.45
2022-10-31T18:33:07.251Z,99.25
2022-10-31T18:34:07.632Z,99.60
2022-10-31T18:35:07.251Z,99.99
2022-10-31T18:36:07.580Z,99.76
2022-10-31T18:37:07.201Z,99.70
2022-10-31T18:38:07.458Z,99.40
2022-10-31T18:39:07.351Z,99.60
2022-10-31T18:40:07.181Z,99.60
2022-10-31T18:41:07.153Z,99.45
2022-10-31T18:42:06.450Z,99.19
2022-10-31T18:43:07.140Z,99.29
2022-10-31T18:44:07.000Z,99.09
2022-10-31T18:45:11.888Z,99.60
2022-10-31T18:46:06.912Z,99.80
2022-10-31T18:47:07.205Z,99.66
2022-10-31T18:48:06.972Z,99.45
2022-10-31T18:49:07.089Z,99.09
2022-10-31T18:50:07.036Z,99.09
2022-10-31T18:51:07.393Z,99.09
2022-10-31T18:52:07.040Z,98.99
2022-10-31T18:53:07.064Z,99.09
2022-10-31T18:54:07.013Z,99.29
2022-10-31T18:55:07.121Z,98.99
2022-10-31T18:56:07.020Z,99.40
2022-10-31T18:57:06.931Z,99.14
2022-10-31T18:58:06.981Z,99.34
2022-10-31T18:59:06.814Z,99.44
2022-10-31T19:00:06.910Z,99.65
2022-10-31T19:01:06.998Z,99.65
2022-10-31T19:02:07.385Z,99.75
2022-10-31T19:03:06.881Z,99.95
2022-10-31T19:04:06.927Z,99.99
2022-10-31T19:05:06.830Z,99.99
2022-10-31T19:06:06.963Z,99.90
2022-10-31T19:07:06.872Z,99.99
2022-10-31T19:08:06.950Z,99.99
2022-10-31T19:09:06.920Z,99.99
2022-10-31T19:10:06.911Z,99.99
2022-10-31T19:11:06.811Z,99.99
2022-10-31T19:12:06.680Z,99.99
2022-10-31T19:13:06.900Z,99.99
2022-10-31T19:14:06.630Z,99.99
2022-10-31T19:15:06.760Z,99.99
2022-10-31T19:16:06.842Z,99.99
2022-10-31T19:17:06.811Z,99.69
2022-10-31T19:18:07.731Z,99.99
2022-10-31T19:19:07.059Z,99.99
2022-10-31T19:20:06.752Z,99.99
2022-10-31T19:21:06.752Z,99.90
2022-10-31T19:22:06.980Z,99.99
2022-10-31T19:23:06.849Z,99.99
2022-10-31T19:24:06.641Z,99.99
2022-10-31T19:25:10.712Z,99.99
2022-10-31T19:26:06.984Z,99.99
2022-10-31T19:27:06.570Z,99.99
2022-10-31T19:28:06.720Z,99.99
2022-10-31T19:29:06.610Z,99.99
2022-10-31T19:30:06.732Z,99.99
2022-10-31T19:31:06.900Z,99.99
2022-10-31T19:32:06.660Z,99.99
2022-10-31T19:33:06.591Z,99.99
2022-10-31T19:34:07.021Z,99.99
2022-10-31T19:35:06.570Z,99.95
2022-10-31T19:36:06.611Z,99.44
2022-10-31T19:37:06.450Z,99.54
2022-10-31T19:38:06.746Z,99.14
2022-10-31T19:39:06.523Z,99.34
2022-10-31T19:40:06.722Z,99.34
2022-10-31T19:41:06.490Z,99.24
2022-10-31T19:42:06.321Z,98.93
2022-10-31T19:43:06.614Z,99.49
2022-10-31T19:44:08.420Z,99.59
2022-10-31T19:45:06.800Z,99.49
2022-10-31T19:46:06.361Z,99.39
2022-10-31T19:47:06.850Z,99.49
2022-10-31T19:48:06.651Z,98.98
2022-10-31T19:49:06.472Z,99.39
2022-10-31T19:50:06.621Z,99.69
2022-10-31T19:51:06.521Z,99.79
2022-10-31T19:52:06.321Z,99.39
2022-10-31T19:53:07.149Z,99.90
2022-10-31T19:54:06.400Z,99.39
2022-10-31T19:55:06.600Z,99.49
2022-10-31T19:56:06.323Z,99.49
2022-10-31T19:57:06.422Z,99.59
2022-10-31T19:58:06.372Z,99.39
2022-10-31T19:59:06.281Z,99.39
2022-10-31T20:00:06.668Z,99.08
2022-10-31T20:01:06.221Z,99.18
2022-10-31T20:02:06.342Z,99.69
2022-10-31T20:03:06.274Z,99.79
2022-10-31T20:04:06.910Z,99.79
2022-10-31T20:05:06.142Z,99.39
2022-10-31T20:06:06.421Z,99.59
2022-10-31T20:07:06.251Z,99.59
2022-10-31T20:08:06.242Z,99.69
2022-10-31T20:09:06.370Z,99.29
2022-10-31T20:10:06.180Z,99.39
2022-10-31T20:11:06.151Z,99.49
2022-10-31T20:12:06.241Z,99.18
2022-10-31T20:13:06.300Z,99.49
2022-10-31T20:14:06.071Z,99.08
2022-10-31T20:15:06.172Z,98.68
2022-10-31T20:16:05.990Z,98.68
2022-10-31T20:17:06.191Z,99.18
2022-10-31T20:18:05.970Z,99.69
2022-10-31T20:19:06.932Z,99.29
2022-10-31T20:20:06.071Z,98.77
2022-10-31T20:21:06.143Z,99.18
2022-10-31T20:22:06.301Z,99.08
2022-10-31T20:23:06.120Z,98.73
2022-10-31T20:24:06.000Z,98.22
2022-10-31T20:25:06.181Z,98.22
2022-10-31T20:26:06.161Z,98.43
2022-10-31T20:27:06.020Z,97.96
2022-10-31T20:28:06.013Z,98.27
2022-10-31T20:29:05.871Z,98.73
2022-10-31T20:30:06.170Z,98.02
2022-10-31T20:31:05.831Z,98.32
2022-10-31T20:32:06.074Z,97.81
2022-10-31T20:33:06.146Z,98.02
2022-10-31T20:34:06.000Z,98.52
2022-10-31T20:35:05.947Z,98.22
2022-10-31T20:36:06.053Z,97.71
2022-10-31T20:37:06.151Z,98.11
2022-10-31T20:38:05.925Z,98.43
2022-10-31T20:39:05.931Z,98.22
2022-10-31T20:40:06.030Z,97.91
2022-10-31T20:41:05.961Z,98.02
2022-10-31T20:42:05.913Z,97.71
2022-10-31T20:43:05.835Z,97.91
2022-10-31T20:44:05.666Z,97.40
2022-10-31T20:45:05.902Z,97.81
2022-10-31T20:46:05.702Z,98.22
2022-10-31T20:47:05.940Z,97.56
2022-10-31T20:48:05.621Z,97.61
2022-10-31T20:49:05.881Z,98.11
2022-10-31T20:50:05.990Z,98.02
2022-10-31T20:51:05.912Z,97.81
2022-10-31T20:52:05.662Z,97.71
